Terminal Aerodrome Forecast
Issued by NWS Cleveland, OH

Home | Current Version | Previous Version | Graphics & Text | Print | Product List | Glossary On
Versions: 1 2 3 4 5 6 7 8 9 10 11 12 13 14 15
000
FTUS41 KCLE 241112 AAA
TAFERI
TAF AMD
KERI 241112Z 2411/2506 07006KT P6SM SCT025
      TEMPO 2411/2415 BKN025
     FM241500 03012KT P6SM SCT035
     FM241700 03012G20KT P6SM SCT050
     FM242200 03008KT P6SM SKC=

USA.gov is the U.S. government's official web portal to all federal, state and local government web resources and services.